Huxford, AL (36543)

5:13 PM CST on March 04, 2015 (GMT -0600)
B.E.C. | Change Station
CLOSE
Current Station
Personal Weather Station
Location: Atmore, AL
Elevation: 272 ft
Nearby Weather Stations

Elev 272 ft 31.07 °N, 87.37 °W | Updated 11 minutes ago

Overcast
Overcast
74.4 °F
Feels Like 73 °F
N
3.0
Wind Variable Wind from South
Gusts 16.0 mph

Today
High -- | Low -- °F
--% Chance of Precip.
Yesterday
High -- | Low -- °F
Precip. -- in
6:13 AM 5:50 PM
Waxing Gibbous, 99% visible
Pressure 29.93 in
Visibility 10.0 miles
Clouds Scattered Clouds 3700 ft
Mostly Cloudy 4500 ft
Mostly Cloudy 7500 ft
Heat Index 73 °F
Dew Point 71 °F
Humidity 88%
Rainfall 0.00 in
Snow Depth Not available.
UV 1 out of 12
Pollen 9.60 out of 12
Air Quality Not available.
Flu Activity Not available.
METAR KGZH 042153Z AUTO 18018G26KT 10SM SCT037 BKN045 BKN075 25/18 A2994 RMK AO2 PK WND 18026/2057 SLP134 T02500178

More Conditions Fewer Conditions

Pressure 29.93 in
Visibility 10.0 miles
Clouds Scattered Clouds 3700 ft
Mostly Cloudy 4500 ft
Mostly Cloudy 7500 ft
Heat Index 73 °F
Dew Point 71 °F
Humidity 88%
Rainfall 0.00 in
Snow Depth Not available.
UV 1 out of 12
Pollen 9.60 out of 12
Air Quality Not available.
Flu Activity Not available.
METAR KGZH 042153Z AUTO 18018G26KT 10SM SCT037 BKN045 BKN075 25/18 A2994 RMK AO2 PK WND 18026/2057 SLP134 T02500178

More Conditions Fewer Conditions

10-Day Weather Forecast

Almanac

Astronomy

Mar. 04, 2015 Rise Set
Actual Time
Civil Twilight
Nautical Twilight
Astronomical Twilight
Moon
Length of Visible Light
Length of Day
Tomorrow will be .
, % of the Moon is Illuminated

Today's Extremes

State Highs State Lows

Community

WunderPhotos

Upload Photos

1,802,599 photos uploaded!

WunderBlogs® & News

Nearby

Air Quality

  Air Quality AQ Index Pollutant
Not available.

Snow Depth

Station Depth Elevation

Earthquake Activity

City Distance Mag. Time & Date
Minimum magnitude displayed is 2.5.

Coastal Water Temperatures

Place Temperature

Nearby Weather Stations